sensor_id;sensor_type;location;lat;lon;timestamp;P1;durP1;ratioP1;P2;durP2;ratioP2
13386;SDS011;6763;48.524;9.044;2023-11-18T00:00:06;1.87;;;1.63;;
13386;SDS011;6763;48.524;9.044;2023-11-18T00:02:38;1.57;;;1.40;;
13386;SDS011;6763;48.524;9.044;2023-11-18T00:05:04;2.37;;;1.20;;
13386;SDS011;6763;48.524;9.044;2023-11-18T00:07:32;1.63;;;1.40;;
13386;SDS011;6763;48.524;9.044;2023-11-18T00:09:57;1.70;;;1.30;;
13386;SDS011;6763;48.524;9.044;2023-11-18T00:12:23;4.17;;;1.60;;
13386;SDS011;6763;48.524;9.044;2023-11-18T00:14:51;1.80;;;1.10;;
13386;SDS011;6763;48.524;9.044;2023-11-18T00:17:16;2.57;;;1.20;;
13386;SDS011;6763;48.524;9.044;2023-11-18T00:19:42;1.53;;;1.13;;
13386;SDS011;6763;48.524;9.044;2023-11-18T00:22:10;1.53;;;1.33;;
13386;SDS011;6763;48.524;9.044;2023-11-18T00:24:36;2.70;;;1.57;;
13386;SDS011;6763;48.524;9.044;2023-11-18T00:27:03;1.57;;;1.43;;
13386;SDS011;6763;48.524;9.044;2023-11-18T00:29:31;1.77;;;1.50;;
13386;SDS011;6763;48.524;9.044;2023-11-18T00:31:58;1.57;;;1.20;;
13386;SDS011;6763;48.524;9.044;2023-11-18T00:34:23;2.10;;;1.40;;
13386;SDS011;6763;48.524;9.044;2023-11-18T00:36:48;1.83;;;1.10;;
13386;SDS011;6763;48.524;9.044;2023-11-18T00:39:14;5.17;;;1.37;;
13386;SDS011;6763;48.524;9.044;2023-11-18T00:41:39;2.43;;;1.40;;
13386;SDS011;6763;48.524;9.044;2023-11-18T00:44:04;1.37;;;1.10;;
13386;SDS011;6763;48.524;9.044;2023-11-18T00:46:33;1.90;;;1.70;;
13386;SDS011;6763;48.524;9.044;2023-11-18T00:49:01;1.90;;;1.50;;
13386;SDS011;6763;48.524;9.044;2023-11-18T00:51:26;1.63;;;1.50;;
13386;SDS011;6763;48.524;9.044;2023-11-18T00:53:52;0.97;;;0.90;;
13386;SDS011;6763;48.524;9.044;2023-11-18T00:56:19;1.73;;;1.43;;
13386;SDS011;6763;48.524;9.044;2023-11-18T00:58:46;2.20;;;1.47;;
13386;SDS011;6763;48.524;9.044;2023-11-18T01:01:12;1.97;;;1.43;;
13386;SDS011;6763;48.524;9.044;2023-11-18T01:03:37;2.50;;;1.43;;
13386;SDS011;6763;48.524;9.044;2023-11-18T01:06:03;1.90;;;1.57;;
13386;SDS011;6763;48.524;9.044;2023-11-18T01:08:31;2.07;;;1.20;;
13386;SDS011;6763;48.524;9.044;2023-11-18T01:10:56;1.73;;;1.17;;
13386;SDS011;6763;48.524;9.044;2023-11-18T01:13:21;1.93;;;1.33;;
13386;SDS011;6763;48.524;9.044;2023-11-18T01:15:47;2.17;;;1.47;;
13386;SDS011;6763;48.524;9.044;2023-11-18T01:18:14;2.43;;;1.87;;
13386;SDS011;6763;48.524;9.044;2023-11-18T01:20:39;1.87;;;1.33;;
13386;SDS011;6763;48.524;9.044;2023-11-18T01:23:05;1.77;;;1.57;;
13386;SDS011;6763;48.524;9.044;2023-11-18T01:25:30;2.03;;;1.50;;
13386;SDS011;6763;48.524;9.044;2023-11-18T01:27:56;2.50;;;1.90;;
13386;SDS011;6763;48.524;9.044;2023-11-18T01:30:21;1.77;;;1.30;;
13386;SDS011;6763;48.524;9.044;2023-11-18T01:32:48;1.60;;;1.50;;
13386;SDS011;6763;48.524;9.044;2023-11-18T01:35:14;1.77;;;1.50;;
13386;SDS011;6763;48.524;9.044;2023-11-18T01:37:39;2.13;;;1.30;;
13386;SDS011;6763;48.524;9.044;2023-11-18T01:40:05;2.47;;;1.70;;
13386;SDS011;6763;48.524;9.044;2023-11-18T01:42:32;1.90;;;1.40;;
13386;SDS011;6763;48.524;9.044;2023-11-18T01:44:58;2.27;;;1.50;;
13386;SDS011;6763;48.524;9.044;2023-11-18T01:47:24;1.73;;;1.40;;
13386;SDS011;6763;48.524;9.044;2023-11-18T01:49:51;1.43;;;1.33;;
13386;SDS011;6763;48.524;9.044;2023-11-18T01:52:17;1.73;;;1.40;;
13386;SDS011;6763;48.524;9.044;2023-11-18T01:54:43;1.50;;;1.27;;
13386;SDS011;6763;48.524;9.044;2023-11-18T01:57:09;1.57;;;1.30;;
13386;SDS011;6763;48.524;9.044;2023-11-18T01:59:36;2.87;;;1.60;;
13386;SDS011;6763;48.524;9.044;2023-11-18T02:02:05;2.17;;;1.77;;
13386;SDS011;6763;48.524;9.044;2023-11-18T02:04:30;1.97;;;1.53;;
13386;SDS011;6763;48.524;9.044;2023-11-18T02:06:56;2.20;;;1.20;;
13386;SDS011;6763;48.524;9.044;2023-11-18T02:09:22;2.10;;;1.57;;
13386;SDS011;6763;48.524;9.044;2023-11-18T02:11:55;2.00;;;1.50;;
13386;SDS011;6763;48.524;9.044;2023-11-18T02:14:41;1.87;;;1.50;;
13386;SDS011;6763;48.524;9.044;2023-11-18T02:17:10;1.50;;;1.27;;
13386;SDS011;6763;48.524;9.044;2023-11-18T02:19:39;1.73;;;1.47;;
13386;SDS011;6763;48.524;9.044;2023-11-18T02:22:05;2.13;;;1.20;;
13386;SDS011;6763;48.524;9.044;2023-11-18T02:24:36;1.70;;;1.30;;
13386;SDS011;6763;48.524;9.044;2023-11-18T02:27:02;1.47;;;1.20;;
13386;SDS011;6763;48.524;9.044;2023-11-18T02:29:33;1.57;;;1.30;;
13386;SDS011;6763;48.524;9.044;2023-11-18T02:34:40;1.33;;;1.23;;
13386;SDS011;6763;48.524;9.044;2023-11-18T02:37:07;2.50;;;1.43;;
13386;SDS011;6763;48.524;9.044;2023-11-18T02:39:36;2.80;;;1.53;;
13386;SDS011;6763;48.524;9.044;2023-11-18T02:42:07;1.90;;;1.30;;
13386;SDS011;6763;48.524;9.044;2023-11-18T02:44:35;1.47;;;1.13;;
13386;SDS011;6763;48.524;9.044;2023-11-18T02:47:03;1.80;;;1.47;;
13386;SDS011;6763;48.524;9.044;2023-11-18T02:49:30;2.33;;;1.37;;
13386;SDS011;6763;48.524;9.044;2023-11-18T02:51:56;3.17;;;1.60;;
13386;SDS011;6763;48.524;9.044;2023-11-18T02:54:21;1.00;;;0.90;;
13386;SDS011;6763;48.524;9.044;2023-11-18T02:56:47;1.50;;;1.20;;
13386;SDS011;6763;48.524;9.044;2023-11-18T02:59:12;1.90;;;1.30;;
13386;SDS011;6763;48.524;9.044;2023-11-18T03:01:38;1.97;;;1.40;;
13386;SDS011;6763;48.524;9.044;2023-11-18T03:04:06;1.63;;;1.20;;
13386;SDS011;6763;48.524;9.044;2023-11-18T03:06:33;2.27;;;1.30;;
13386;SDS011;6763;48.524;9.044;2023-11-18T03:08:58;1.20;;;1.00;;
13386;SDS011;6763;48.524;9.044;2023-11-18T03:11:24;1.73;;;1.33;;
13386;SDS011;6763;48.524;9.044;2023-11-18T03:13:49;1.53;;;1.03;;
13386;SDS011;6763;48.524;9.044;2023-11-18T03:16:15;2.63;;;1.20;;
13386;SDS011;6763;48.524;9.044;2023-11-18T03:18:41;2.83;;;1.20;;
13386;SDS011;6763;48.524;9.044;2023-11-18T03:21:14;1.50;;;1.30;;
13386;SDS011;6763;48.524;9.044;2023-11-18T03:23:40;1.40;;;1.00;;
13386;SDS011;6763;48.524;9.044;2023-11-18T03:26:06;1.73;;;1.20;;
13386;SDS011;6763;48.524;9.044;2023-11-18T03:28:35;1.17;;;1.00;;
13386;SDS011;6763;48.524;9.044;2023-11-18T03:31:02;1.73;;;1.17;;
13386;SDS011;6763;48.524;9.044;2023-11-18T03:33:29;1.07;;;0.77;;
13386;SDS011;6763;48.524;9.044;2023-11-18T03:35:54;1.07;;;0.90;;
13386;SDS011;6763;48.524;9.044;2023-11-18T03:38:21;1.10;;;1.00;;
13386;SDS011;6763;48.524;9.044;2023-11-18T03:40:46;1.50;;;1.10;;
13386;SDS011;6763;48.524;9.044;2023-11-18T03:43:12;2.13;;;1.20;;
13386;SDS011;6763;48.524;9.044;2023-11-18T03:45:38;1.53;;;1.20;;
13386;SDS011;6763;48.524;9.044;2023-11-18T03:48:05;1.33;;;1.17;;
13386;SDS011;6763;48.524;9.044;2023-11-18T03:50:31;1.70;;;1.53;;
13386;SDS011;6763;48.524;9.044;2023-11-18T03:52:56;2.10;;;1.17;;
13386;SDS011;6763;48.524;9.044;2023-11-18T03:55:22;2.57;;;1.60;;
13386;SDS011;6763;48.524;9.044;2023-11-18T03:57:47;2.07;;;1.70;;
13386;SDS011;6763;48.524;9.044;2023-11-18T04:00:15;2.13;;;1.70;;
13386;SDS011;6763;48.524;9.044;2023-11-18T04:02:41;1.60;;;1.13;;
13386;SDS011;6763;48.524;9.044;2023-11-18T04:05:06;3.43;;;1.83;;
13386;SDS011;6763;48.524;9.044;2023-11-18T04:07:33;1.67;;;1.47;;
13386;SDS011;6763;48.524;9.044;2023-11-18T04:09:59;3.53;;;1.50;;
13386;SDS011;6763;48.524;9.044;2023-11-18T04:12:25;2.33;;;1.33;;
13386;SDS011;6763;48.524;9.044;2023-11-18T04:14:51;8.73;;;1.60;;
13386;SDS011;6763;48.524;9.044;2023-11-18T04:17:17;1.70;;;1.20;;
13386;SDS011;6763;48.524;9.044;2023-11-18T04:19:43;2.17;;;1.60;;
13386;SDS011;6763;48.524;9.044;2023-11-18T04:22:08;2.23;;;1.80;;
13386;SDS011;6763;48.524;9.044;2023-11-18T04:24:34;2.80;;;1.50;;
13386;SDS011;6763;48.524;9.044;2023-11-18T04:27:00;1.53;;;1.37;;
13386;SDS011;6763;48.524;9.044;2023-11-18T04:29:27;2.10;;;1.67;;
13386;SDS011;6763;48.524;9.044;2023-11-18T04:31:52;2.53;;;1.50;;
13386;SDS011;6763;48.524;9.044;2023-11-18T04:34:18;2.33;;;1.57;;
13386;SDS011;6763;48.524;9.044;2023-11-18T04:36:44;1.73;;;1.43;;
13386;SDS011;6763;48.524;9.044;2023-11-18T04:39:09;2.30;;;1.43;;
13386;SDS011;6763;48.524;9.044;2023-11-18T04:41:36;1.50;;;1.40;;
13386;SDS011;6763;48.524;9.044;2023-11-18T04:44:02;2.03;;;1.30;;
13386;SDS011;6763;48.524;9.044;2023-11-18T04:46:27;1.67;;;1.30;;
13386;SDS011;6763;48.524;9.044;2023-11-18T04:48:53;1.73;;;1.23;;
13386;SDS011;6763;48.524;9.044;2023-11-18T04:51:19;2.53;;;1.60;;
13386;SDS011;6763;48.524;9.044;2023-11-18T04:53:46;2.83;;;1.70;;
13386;SDS011;6763;48.524;9.044;2023-11-18T04:56:11;3.13;;;2.17;;
13386;SDS011;6763;48.524;9.044;2023-11-18T04:58:38;2.23;;;1.70;;
13386;SDS011;6763;48.524;9.044;2023-11-18T05:01:04;1.93;;;1.70;;
13386;SDS011;6763;48.524;9.044;2023-11-18T05:03:30;2.23;;;1.73;;
13386;SDS011;6763;48.524;9.044;2023-11-18T05:05:55;3.27;;;1.90;;
13386;SDS011;6763;48.524;9.044;2023-11-18T05:08:21;4.60;;;2.00;;
13386;SDS011;6763;48.524;9.044;2023-11-18T05:10:47;2.10;;;1.60;;
13386;SDS011;6763;48.524;9.044;2023-11-18T05:13:13;2.87;;;1.90;;
13386;SDS011;6763;48.524;9.044;2023-11-18T05:15:41;2.77;;;1.70;;
13386;SDS011;6763;48.524;9.044;2023-11-18T05:18:10;2.63;;;1.83;;
13386;SDS011;6763;48.524;9.044;2023-11-18T05:20:39;3.30;;;2.00;;
13386;SDS011;6763;48.524;9.044;2023-11-18T05:23:04;2.87;;;1.80;;
13386;SDS011;6763;48.524;9.044;2023-11-18T05:25:29;3.60;;;2.97;;
13386;SDS011;6763;48.524;9.044;2023-11-18T05:27:55;3.37;;;1.80;;
13386;SDS011;6763;48.524;9.044;2023-11-18T05:30:20;3.17;;;2.00;;
13386;SDS011;6763;48.524;9.044;2023-11-18T05:32:48;2.70;;;1.90;;
13386;SDS011;6763;48.524;9.044;2023-11-18T05:35:14;2.40;;;1.97;;
13386;SDS011;6763;48.524;9.044;2023-11-18T05:37:39;2.20;;;1.73;;
13386;SDS011;6763;48.524;9.044;2023-11-18T05:40:06;2.77;;;2.00;;
13386;SDS011;6763;48.524;9.044;2023-11-18T05:42:35;2.80;;;1.93;;
13386;SDS011;6763;48.524;9.044;2023-11-18T05:45:02;3.17;;;1.90;;
13386;SDS011;6763;48.524;9.044;2023-11-18T05:47:32;3.60;;;2.00;;
13386;SDS011;6763;48.524;9.044;2023-11-18T05:49:59;2.63;;;1.87;;
13386;SDS011;6763;48.524;9.044;2023-11-18T05:52:24;2.40;;;1.73;;
13386;SDS011;6763;48.524;9.044;2023-11-18T05:54:51;3.17;;;1.80;;
13386;SDS011;6763;48.524;9.044;2023-11-18T05:57:19;2.53;;;1.97;;
13386;SDS011;6763;48.524;9.044;2023-11-18T05:59:45;2.60;;;1.87;;
13386;SDS011;6763;48.524;9.044;2023-11-18T06:02:13;1.93;;;1.73;;
13386;SDS011;6763;48.524;9.044;2023-11-18T06:04:43;2.90;;;2.03;;
13386;SDS011;6763;48.524;9.044;2023-11-18T06:07:09;2.47;;;1.80;;
13386;SDS011;6763;48.524;9.044;2023-11-18T06:09:35;2.17;;;1.60;;
13386;SDS011;6763;48.524;9.044;2023-11-18T06:12:01;2.80;;;2.07;;
13386;SDS011;6763;48.524;9.044;2023-11-18T06:14:34;2.73;;;1.87;;
13386;SDS011;6763;48.524;9.044;2023-11-18T06:17:02;2.37;;;1.73;;
13386;SDS011;6763;48.524;9.044;2023-11-18T06:19:28;2.77;;;1.87;;
13386;SDS011;6763;48.524;9.044;2023-11-18T06:21:55;2.60;;;1.97;;
13386;SDS011;6763;48.524;9.044;2023-11-18T06:24:20;4.07;;;2.23;;
13386;SDS011;6763;48.524;9.044;2023-11-18T06:26:46;3.07;;;2.20;;
13386;SDS011;6763;48.524;9.044;2023-11-18T06:29:14;3.23;;;2.00;;
13386;SDS011;6763;48.524;9.044;2023-11-18T06:31:40;3.63;;;2.03;;
13386;SDS011;6763;48.524;9.044;2023-11-18T06:34:07;4.23;;;2.47;;
13386;SDS011;6763;48.524;9.044;2023-11-18T06:36:33;3.40;;;1.90;;
13386;SDS011;6763;48.524;9.044;2023-11-18T06:38:58;2.43;;;1.77;;
13386;SDS011;6763;48.524;9.044;2023-11-18T06:41:24;2.17;;;1.90;;
13386;SDS011;6763;48.524;9.044;2023-11-18T06:43:51;3.07;;;2.00;;
13386;SDS011;6763;48.524;9.044;2023-11-18T06:46:20;3.77;;;2.00;;
13386;SDS011;6763;48.524;9.044;2023-11-18T06:48:53;2.63;;;2.00;;
13386;SDS011;6763;48.524;9.044;2023-11-18T06:51:23;2.90;;;2.07;;
13386;SDS011;6763;48.524;9.044;2023-11-18T06:53:50;2.03;;;1.80;;
13386;SDS011;6763;48.524;9.044;2023-11-18T06:56:25;1.97;;;1.67;;
13386;SDS011;6763;48.524;9.044;2023-11-18T06:58:51;3.00;;;1.90;;
13386;SDS011;6763;48.524;9.044;2023-11-18T07:01:16;3.23;;;2.23;;
13386;SDS011;6763;48.524;9.044;2023-11-18T07:03:44;3.27;;;2.10;;
13386;SDS011;6763;48.524;9.044;2023-11-18T07:06:10;3.47;;;2.27;;
13386;SDS011;6763;48.524;9.044;2023-11-18T07:08:39;3.73;;;2.43;;
13386;SDS011;6763;48.524;9.044;2023-11-18T07:11:05;4.60;;;2.00;;
13386;SDS011;6763;48.524;9.044;2023-11-18T07:13:31;2.50;;;1.67;;
13386;SDS011;6763;48.524;9.044;2023-11-18T07:15:58;3.13;;;2.10;;
13386;SDS011;6763;48.524;9.044;2023-11-18T07:18:24;4.93;;;1.70;;
13386;SDS011;6763;48.524;9.044;2023-11-18T07:20:49;3.33;;;1.93;;
13386;SDS011;6763;48.524;9.044;2023-11-18T07:23:21;2.87;;;2.27;;
13386;SDS011;6763;48.524;9.044;2023-11-18T07:25:46;2.47;;;1.83;;
13386;SDS011;6763;48.524;9.044;2023-11-18T07:28:12;2.57;;;1.70;;
13386;SDS011;6763;48.524;9.044;2023-11-18T07:30:42;4.07;;;2.30;;
13386;SDS011;6763;48.524;9.044;2023-11-18T07:33:08;2.60;;;2.07;;
13386;SDS011;6763;48.524;9.044;2023-11-18T07:35:33;3.47;;;1.90;;
13386;SDS011;6763;48.524;9.044;2023-11-18T07:38:01;2.77;;;1.77;;
13386;SDS011;6763;48.524;9.044;2023-11-18T07:40:27;2.67;;;2.03;;
13386;SDS011;6763;48.524;9.044;2023-11-18T07:42:56;2.00;;;1.70;;
13386;SDS011;6763;48.524;9.044;2023-11-18T07:45:22;2.37;;;1.63;;
13386;SDS011;6763;48.524;9.044;2023-11-18T07:47:49;2.77;;;1.60;;
13386;SDS011;6763;48.524;9.044;2023-11-18T07:50:16;3.57;;;1.97;;
13386;SDS011;6763;48.524;9.044;2023-11-18T07:52:48;1.97;;;1.83;;
13386;SDS011;6763;48.524;9.044;2023-11-18T07:55:14;9.00;;;2.20;;
13386;SDS011;6763;48.524;9.044;2023-11-18T07:57:40;2.93;;;1.83;;
13386;SDS011;6763;48.524;9.044;2023-11-18T08:00:06;3.00;;;1.70;;
13386;SDS011;6763;48.524;9.044;2023-11-18T08:02:36;2.63;;;1.90;;
13386;SDS011;6763;48.524;9.044;2023-11-18T08:05:02;2.40;;;1.70;;
13386;SDS011;6763;48.524;9.044;2023-11-18T08:07:31;2.00;;;1.80;;
13386;SDS011;6763;48.524;9.044;2023-11-18T08:09:57;2.47;;;1.60;;
13386;SDS011;6763;48.524;9.044;2023-11-18T08:12:25;2.87;;;1.70;;
13386;SDS011;6763;48.524;9.044;2023-11-18T08:14:51;2.20;;;1.43;;
13386;SDS011;6763;48.524;9.044;2023-11-18T08:17:16;2.87;;;1.47;;
13386;SDS011;6763;48.524;9.044;2023-11-18T08:19:41;2.20;;;1.67;;
13386;SDS011;6763;48.524;9.044;2023-11-18T08:22:07;3.10;;;2.07;;
13386;SDS011;6763;48.524;9.044;2023-11-18T08:24:34;2.63;;;1.90;;
13386;SDS011;6763;48.524;9.044;2023-11-18T08:26:59;2.03;;;1.73;;
13386;SDS011;6763;48.524;9.044;2023-11-18T08:29:25;3.50;;;1.83;;
13386;SDS011;6763;48.524;9.044;2023-11-18T08:31:56;6.23;;;2.17;;
13386;SDS011;6763;48.524;9.044;2023-11-18T08:34:21;2.47;;;1.60;;
13386;SDS011;6763;48.524;9.044;2023-11-18T08:36:46;2.70;;;2.03;;
13386;SDS011;6763;48.524;9.044;2023-11-18T08:39:12;2.37;;;1.73;;
13386;SDS011;6763;48.524;9.044;2023-11-18T08:41:41;2.80;;;1.97;;
13386;SDS011;6763;48.524;9.044;2023-11-18T08:44:08;2.37;;;1.80;;
13386;SDS011;6763;48.524;9.044;2023-11-18T08:46:34;2.53;;;1.63;;
13386;SDS011;6763;48.524;9.044;2023-11-18T08:48:59;2.90;;;1.97;;
13386;SDS011;6763;48.524;9.044;2023-11-18T08:51:31;2.30;;;1.90;;
13386;SDS011;6763;48.524;9.044;2023-11-18T08:53:58;3.00;;;2.10;;
13386;SDS011;6763;48.524;9.044;2023-11-18T08:56:24;3.07;;;1.90;;
13386;SDS011;6763;48.524;9.044;2023-11-18T08:58:59;3.90;;;1.90;;
13386;SDS011;6763;48.524;9.044;2023-11-18T09:01:25;2.87;;;1.80;;
13386;SDS011;6763;48.524;9.044;2023-11-18T09:03:53;2.40;;;1.73;;
13386;SDS011;6763;48.524;9.044;2023-11-18T09:06:18;2.30;;;1.70;;
13386;SDS011;6763;48.524;9.044;2023-11-18T09:08:50;2.93;;;1.97;;
13386;SDS011;6763;48.524;9.044;2023-11-18T09:11:19;2.03;;;1.70;;
13386;SDS011;6763;48.524;9.044;2023-11-18T09:13:47;2.93;;;2.20;;
13386;SDS011;6763;48.524;9.044;2023-11-18T09:16:16;2.03;;;1.70;;
13386;SDS011;6763;48.524;9.044;2023-11-18T09:18:45;2.20;;;1.77;;
13386;SDS011;6763;48.524;9.044;2023-11-18T09:21:10;4.67;;;2.30;;
13386;SDS011;6763;48.524;9.044;2023-11-18T09:23:40;3.53;;;1.97;;
13386;SDS011;6763;48.524;9.044;2023-11-18T09:26:07;2.97;;;1.60;;
13386;SDS011;6763;48.524;9.044;2023-11-18T09:28:33;2.20;;;1.60;;
13386;SDS011;6763;48.524;9.044;2023-11-18T09:31:06;1.37;;;1.27;;
13386;SDS011;6763;48.524;9.044;2023-11-18T09:33:36;1.93;;;1.50;;
13386;SDS011;6763;48.524;9.044;2023-11-18T09:36:05;1.60;;;1.37;;
13386;SDS011;6763;48.524;9.044;2023-11-18T09:38:40;1.73;;;1.50;;
13386;SDS011;6763;48.524;9.044;2023-11-18T09:41:07;2.37;;;1.40;;
13386;SDS011;6763;48.524;9.044;2023-11-18T09:43:37;2.30;;;1.60;;
13386;SDS011;6763;48.524;9.044;2023-11-18T09:46:25;1.73;;;1.40;;
13386;SDS011;6763;48.524;9.044;2023-11-18T09:51:50;1.63;;;1.17;;
13386;SDS011;6763;48.524;9.044;2023-11-18T10:02:09;1.17;;;0.97;;
13386;SDS011;6763;48.524;9.044;2023-11-18T10:04:36;2.20;;;1.20;;
13386;SDS011;6763;48.524;9.044;2023-11-18T10:07:04;1.47;;;1.20;;
13386;SDS011;6763;48.524;9.044;2023-11-18T10:09:32;2.97;;;1.77;;
13386;SDS011;6763;48.524;9.044;2023-11-18T10:12:08;1.47;;;1.13;;
13386;SDS011;6763;48.524;9.044;2023-11-18T10:14:37;1.40;;;1.20;;
13386;SDS011;6763;48.524;9.044;2023-11-18T10:17:06;0.90;;;0.90;;
13386;SDS011;6763;48.524;9.044;2023-11-18T10:19:51;1.47;;;1.20;;
13386;SDS011;6763;48.524;9.044;2023-11-18T10:22:21;1.33;;;1.10;;
13386;SDS011;6763;48.524;9.044;2023-11-18T10:24:48;1.10;;;1.00;;
13386;SDS011;6763;48.524;9.044;2023-11-18T10:27:14;1.30;;;1.10;;
13386;SDS011;6763;48.524;9.044;2023-11-18T10:29:40;1.73;;;1.10;;
13386;SDS011;6763;48.524;9.044;2023-11-18T10:32:14;1.47;;;1.20;;
13386;SDS011;6763;48.524;9.044;2023-11-18T10:34:46;2.60;;;1.37;;
13386;SDS011;6763;48.524;9.044;2023-11-18T10:37:13;5.97;;;1.10;;
13386;SDS011;6763;48.524;9.044;2023-11-18T10:39:38;1.27;;;1.10;;
13386;SDS011;6763;48.524;9.044;2023-11-18T10:42:19;1.83;;;1.60;;
13386;SDS011;6763;48.524;9.044;2023-11-18T10:44:54;2.20;;;1.67;;
13386;SDS011;6763;48.524;9.044;2023-11-18T10:47:24;4.50;;;2.60;;
13386;SDS011;6763;48.524;9.044;2023-11-18T10:49:53;5.03;;;2.77;;
13386;SDS011;6763;48.524;9.044;2023-11-18T10:52:22;2.40;;;1.80;;
13386;SDS011;6763;48.524;9.044;2023-11-18T10:54:52;1.63;;;1.27;;
13386;SDS011;6763;48.524;9.044;2023-11-18T10:57:21;1.50;;;1.00;;
13386;SDS011;6763;48.524;9.044;2023-11-18T11:00:01;2.30;;;1.47;;
13386;SDS011;6763;48.524;9.044;2023-11-18T11:02:33;1.20;;;1.00;;
13386;SDS011;6763;48.524;9.044;2023-11-18T11:05:04;1.67;;;1.20;;
13386;SDS011;6763;48.524;9.044;2023-11-18T11:07:32;1.23;;;1.10;;
13386;SDS011;6763;48.524;9.044;2023-11-18T11:10:04;1.37;;;1.20;;
13386;SDS011;6763;48.524;9.044;2023-11-18T11:12:33;1.53;;;1.27;;
13386;SDS011;6763;48.524;9.044;2023-11-18T11:15:12;1.40;;;1.13;;
13386;SDS011;6763;48.524;9.044;2023-11-18T11:17:47;2.13;;;1.30;;
13386;SDS011;6763;48.524;9.044;2023-11-18T11:20:20;1.83;;;1.10;;
13386;SDS011;6763;48.524;9.044;2023-11-18T11:23:05;1.63;;;1.30;;
13386;SDS011;6763;48.524;9.044;2023-11-18T11:28:15;1.37;;;1.00;;
13386;SDS011;6763;48.524;9.044;2023-11-18T11:30:45;1.17;;;0.90;;
13386;SDS011;6763;48.524;9.044;2023-11-18T11:33:33;1.90;;;1.20;;
13386;SDS011;6763;48.524;9.044;2023-11-18T11:36:09;1.63;;;1.40;;
13386;SDS011;6763;48.524;9.044;2023-11-18T11:38:37;4.23;;;1.40;;
13386;SDS011;6763;48.524;9.044;2023-11-18T11:45:53;2.23;;;1.40;;
13386;SDS011;6763;48.524;9.044;2023-11-18T11:48:23;1.40;;;1.10;;
13386;SDS011;6763;48.524;9.044;2023-11-18T11:56:51;1.20;;;1.00;;
13386;SDS011;6763;48.524;9.044;2023-11-18T12:00:04;2.43;;;1.07;;
13386;SDS011;6763;48.524;9.044;2023-11-18T12:02:47;1.67;;;1.00;;
13386;SDS011;6763;48.524;9.044;2023-11-18T12:05:15;3.57;;;1.00;;
13386;SDS011;6763;48.524;9.044;2023-11-18T12:07:44;1.13;;;1.00;;
13386;SDS011;6763;48.524;9.044;2023-11-18T12:10:12;1.97;;;1.07;;
13386;SDS011;6763;48.524;9.044;2023-11-18T12:12:45;0.87;;;0.87;;
13386;SDS011;6763;48.524;9.044;2023-11-18T12:15:11;1.20;;;1.10;;
13386;SDS011;6763;48.524;9.044;2023-11-18T12:23:19;1.00;;;0.90;;
13386;SDS011;6763;48.524;9.044;2023-11-18T12:25:48;1.00;;;0.90;;
13386;SDS011;6763;48.524;9.044;2023-11-18T12:28:19;1.20;;;1.00;;
13386;SDS011;6763;48.524;9.044;2023-11-18T12:30:52;0.83;;;0.80;;
13386;SDS011;6763;48.524;9.044;2023-11-18T12:33:24;0.90;;;0.90;;
13386;SDS011;6763;48.524;9.044;2023-11-18T12:41:43;1.30;;;1.00;;
13386;SDS011;6763;48.524;9.044;2023-11-18T12:44:36;2.30;;;1.23;;
13386;SDS011;6763;48.524;9.044;2023-11-18T12:47:31;2.60;;;1.27;;
13386;SDS011;6763;48.524;9.044;2023-11-18T12:49:59;1.40;;;0.97;;
13386;SDS011;6763;48.524;9.044;2023-11-18T12:52:26;1.63;;;1.30;;
13386;SDS011;6763;48.524;9.044;2023-11-18T12:54:53;2.50;;;1.37;;
13386;SDS011;6763;48.524;9.044;2023-11-18T12:57:26;1.30;;;1.03;;
13386;SDS011;6763;48.524;9.044;2023-11-18T12:59:56;2.03;;;0.87;;
13386;SDS011;6763;48.524;9.044;2023-11-18T13:02:22;2.23;;;1.30;;
13386;SDS011;6763;48.524;9.044;2023-11-18T13:04:48;1.03;;;0.93;;
13386;SDS011;6763;48.524;9.044;2023-11-18T13:07:17;1.70;;;1.23;;
13386;SDS011;6763;48.524;9.044;2023-11-18T13:09:44;6.83;;;3.47;;
13386;SDS011;6763;48.524;9.044;2023-11-18T13:12:11;8.33;;;4.30;;
13386;SDS011;6763;48.524;9.044;2023-11-18T13:14:40;2.50;;;1.43;;
13386;SDS011;6763;48.524;9.044;2023-11-18T13:17:10;1.37;;;1.00;;
13386;SDS011;6763;48.524;9.044;2023-11-18T13:19:38;1.27;;;1.10;;
13386;SDS011;6763;48.524;9.044;2023-11-18T13:22:05;0.80;;;0.80;;
13386;SDS011;6763;48.524;9.044;2023-11-18T13:24:38;1.83;;;1.00;;
13386;SDS011;6763;48.524;9.044;2023-11-18T13:27:05;1.30;;;1.20;;
13386;SDS011;6763;48.524;9.044;2023-11-18T13:29:32;1.90;;;1.03;;
13386;SDS011;6763;48.524;9.044;2023-11-18T13:31:59;1.83;;;1.13;;
13386;SDS011;6763;48.524;9.044;2023-11-18T13:34:28;1.73;;;1.37;;
13386;SDS011;6763;48.524;9.044;2023-11-18T13:36:57;2.23;;;1.63;;
13386;SDS011;6763;48.524;9.044;2023-11-18T13:39:23;1.50;;;1.20;;
13386;SDS011;6763;48.524;9.044;2023-11-18T13:41:52;1.57;;;1.47;;
13386;SDS011;6763;48.524;9.044;2023-11-18T13:44:34;1.60;;;1.40;;
13386;SDS011;6763;48.524;9.044;2023-11-18T13:47:06;1.40;;;1.20;;
13386;SDS011;6763;48.524;9.044;2023-11-18T13:49:32;1.30;;;1.20;;
13386;SDS011;6763;48.524;9.044;2023-11-18T13:51:59;4.07;;;2.20;;
13386;SDS011;6763;48.524;9.044;2023-11-18T13:54:28;2.87;;;1.60;;
13386;SDS011;6763;48.524;9.044;2023-11-18T13:56:56;3.37;;;1.63;;
13386;SDS011;6763;48.524;9.044;2023-11-18T13:59:26;1.73;;;1.33;;
13386;SDS011;6763;48.524;9.044;2023-11-18T14:01:53;2.30;;;2.10;;
13386;SDS011;6763;48.524;9.044;2023-11-18T14:04:21;2.33;;;1.70;;
13386;SDS011;6763;48.524;9.044;2023-11-18T14:06:50;1.73;;;1.20;;
13386;SDS011;6763;48.524;9.044;2023-11-18T14:09:17;2.40;;;1.33;;
13386;SDS011;6763;48.524;9.044;2023-11-18T14:11:46;1.40;;;1.03;;
13386;SDS011;6763;48.524;9.044;2023-11-18T14:14:14;1.33;;;1.17;;
13386;SDS011;6763;48.524;9.044;2023-11-18T14:16:40;2.60;;;1.40;;
13386;SDS011;6763;48.524;9.044;2023-11-18T14:19:05;3.40;;;1.27;;
13386;SDS011;6763;48.524;9.044;2023-11-18T14:21:31;1.77;;;1.50;;
13386;SDS011;6763;48.524;9.044;2023-11-18T14:23:57;1.73;;;1.33;;
13386;SDS011;6763;48.524;9.044;2023-11-18T14:26:27;2.30;;;1.83;;
13386;SDS011;6763;48.524;9.044;2023-11-18T14:28:52;4.07;;;1.67;;
13386;SDS011;6763;48.524;9.044;2023-11-18T14:31:17;2.17;;;1.90;;
13386;SDS011;6763;48.524;9.044;2023-11-18T14:33:43;1.87;;;1.63;;
13386;SDS011;6763;48.524;9.044;2023-11-18T14:36:09;3.00;;;1.90;;
13386;SDS011;6763;48.524;9.044;2023-11-18T14:38:34;2.20;;;1.50;;
13386;SDS011;6763;48.524;9.044;2023-11-18T14:41:00;3.53;;;1.40;;
13386;SDS011;6763;48.524;9.044;2023-11-18T14:43:26;2.03;;;1.43;;
13386;SDS011;6763;48.524;9.044;2023-11-18T14:45:53;1.40;;;1.20;;
13386;SDS011;6763;48.524;9.044;2023-11-18T14:48:18;2.80;;;1.47;;
13386;SDS011;6763;48.524;9.044;2023-11-18T14:50:43;1.90;;;1.40;;
13386;SDS011;6763;48.524;9.044;2023-11-18T14:53:10;2.37;;;1.40;;
13386;SDS011;6763;48.524;9.044;2023-11-18T14:55:35;1.90;;;1.33;;
13386;SDS011;6763;48.524;9.044;2023-11-18T14:58:01;2.40;;;1.60;;
13386;SDS011;6763;48.524;9.044;2023-11-18T15:00:29;1.87;;;1.30;;
13386;SDS011;6763;48.524;9.044;2023-11-18T15:02:57;1.40;;;1.10;;
13386;SDS011;6763;48.524;9.044;2023-11-18T15:05:22;1.50;;;1.40;;
13386;SDS011;6763;48.524;9.044;2023-11-18T15:07:49;2.00;;;1.30;;
13386;SDS011;6763;48.524;9.044;2023-11-18T15:10:16;2.00;;;1.40;;
13386;SDS011;6763;48.524;9.044;2023-11-18T15:12:48;2.13;;;0.90;;
